SOF weather

Sofia Airport
Sofia, Sofia Province, Bulgaria

Public forecast

Using degrees Celsius for public forecast. Weather courtesy of forecast.io.

METAR (pilot weather report)

Retrieved 2019/05/21 03:30 UTC (28 minutes ago):

LBSF 210330Z VRB01KT 7000 FEW051 08/08 Q1013 TEMPO 3000 BR

TAF (pilot weather forecast)

Forecast is more than 12 hours old.

Retrieved 2019/05/20 00:18 UTC (1 day ago):

TAF LBSF 202300Z 2100/2124 VRB04KT 9999 SCT050 TEMPO 2102/2105 3000 BR SCT015 BECMG 2108/2110 28010KT PROB30 TEMPO 2111/2116 5000 TSRA FEW030CB BKN050 BECMG 2118/2120 VRB04KT